Time;durP1;ratioP1;P1;durP2;ratioP2;P2;SDS_P1;SDS_P2;PMS_P1;PMS_P2;Temp;Humidity;BMP_temperature;BMP_pressure;BME280_temperature;BME280_humidity;BME280_pressure;Samples;Min_cycle;Max_cycle;Signal;HPM_P1;HPM_P2
2023/12/31 06:32:10;;;;;;;1.73;0.93;;;;;;;;;;5835805;24;19956;-84
2023/12/31 07:18:42;;;;;;;;;;;;;;;;;;;;;
2023/12/31 12:18:06;;;;;;;4.70;0.98;;;;;;;;;;4801868;29;20071;-86
2023/12/31 12:24:14;;;;;;;1.50;0.98;;;;;;;;;;4721144;30;20095;-86
2023/12/31 12:26:45;;;;;;;2.28;0.57;;;;;;;;;;4667301;30;20077;-85
2023/12/31 12:29:22;;;;;;;0.98;0.65;;;;;;;;;;4746628;30;20044;-86
2023/12/31 12:32:16;;;;;;;1.50;0.85;;;;;;;;;;4729488;30;20583;-86
2023/12/31 12:34:50;;;;;;;5.22;1.17;;;;;;;;;;4757029;30;20830;-86
2023/12/31 12:40:29;;;;;;;5.65;1.83;;;;;;;;;;4743922;30;20098;-85
2023/12/31 12:43:14;;;;;;;5.25;2.10;;;;;;;;;;4745863;30;20087;-85
2023/12/31 12:46:11;;;;;;;3.17;1.50;;;;;;;;;;4742037;30;20067;-85
2023/12/31 12:49:03;;;;;;;1.55;1.13;;;;;;;;;;4746815;30;20162;-86
2023/12/31 12:51:33;;;;;;;0.75;0.65;;;;;;;;;;4748109;30;20047;-86
2023/12/31 12:54:03;;;;;;;3.63;1.55;;;;;;;;;;4784687;29;20051;-85
2023/12/31 12:56:32;;;;;;;6.45;0.88;;;;;;;;;;4774735;30;20074;-86
2023/12/31 12:59:19;;;;;;;0.45;0.25;;;;;;;;;;4785421;30;20050;-86
2023/12/31 13:01:51;;;;;;;0.50;0.15;;;;;;;;;;4780985;29;20062;-83
2023/12/31 13:04:30;;;;;;;0.90;0.43;;;;;;;;;;4775246;30;20078;-83
2023/12/31 13:06:59;;;;;;;0.00;0.00;;;;;;;;;;4766419;29;20057;-83
2023/12/31 13:09:40;;;;;;;;;;;;;;;;;;;;;
2023/12/31 13:12:17;;;;;;;0.00;0.00;;;;;;;;;;4795288;29;20049;-82
2023/12/31 13:14:48;;;;;;;0.20;0.10;;;;;;;;;;4749196;30;20060;-82
2023/12/31 13:17:30;;;;;;;0.00;0.00;;;;;;;;;;4748992;30;20063;-82
2023/12/31 13:19:58;;;;;;;0.20;0.20;;;;;;;;;;4735430;30;20056;-83
2023/12/31 13:22:26;;;;;;;0.10;0.03;;;;;;;;;;4742775;30;20082;-85
2023/12/31 13:24:55;;;;;;;0.03;0.03;;;;;;;;;;4735590;30;20219;-83
2023/12/31 13:27:29;;;;;;;0.25;0.20;;;;;;;;;;4731051;30;20047;-83
2023/12/31 13:29:57;;;;;;;0.17;0.17;;;;;;;;;;4704845;30;20204;-83
2023/12/31 13:54:46;;;;;;;0.10;0.10;;;;;;;;;;4760879;30;20407;-86
2023/12/31 13:57:34;;;;;;;3.85;0.20;;;;;;;;;;4747919;30;20134;-85
2023/12/31 14:00:18;;;;;;;0.40;0.22;;;;;;;;;;4840851;29;20064;-83
2023/12/31 14:06:41;;;;;;;0.25;0.20;;;;;;;;;;4844921;29;20125;-86
2023/12/31 14:15:54;;;;;;;3.83;0.10;;;;;;;;;;4841251;29;20477;-86
2023/12/31 14:25:22;;;;;;;0.00;0.00;;;;;;;;;;4822969;29;20471;-83
2023/12/31 14:28:03;;;;;;;1.45;0.88;;;;;;;;;;4821904;29;20061;-83
2023/12/31 14:33:54;;;;;;;0.10;0.00;;;;;;;;;;4765557;30;20036;-85
2023/12/31 14:36:20;;;;;;;0.38;0.00;;;;;;;;;;4767286;30;20617;-85
2023/12/31 14:38:49;;;;;;;0.08;0.00;;;;;;;;;;4776599;29;20043;-86
2023/12/31 14:41:15;;;;;;;0.00;0.00;;;;;;;;;;4808593;29;20042;-85
2023/12/31 14:43:41;;;;;;;0.20;0.10;;;;;;;;;;4803244;29;20047;-85
2023/12/31 14:46:07;;;;;;;0.22;0.15;;;;;;;;;;4802902;29;20051;-85
2023/12/31 14:48:33;;;;;;;0.22;0.22;;;;;;;;;;4788135;29;20485;-85
2023/12/31 14:50:59;;;;;;;2.22;0.25;;;;;;;;;;4817529;29;20054;-85
2023/12/31 14:53:30;;;;;;;1.27;0.88;;;;;;;;;;4798165;29;20374;-85
2023/12/31 14:55:56;;;;;;;18.42;0.52;;;;;;;;;;4813840;29;20057;-85
2023/12/31 14:58:23;;;;;;;0.45;0.35;;;;;;;;;;4819027;29;20042;-85
2023/12/31 15:00:52;;;;;;;1.05;0.85;;;;;;;;;;4838668;29;20813;-85
2023/12/31 15:03:18;;;;;;;0.05;0.05;;;;;;;;;;4826702;29;20061;-85
2023/12/31 15:05:46;;;;;;;0.32;0.17;;;;;;;;;;4822219;29;20503;-85
2023/12/31 15:08:12;;;;;;;0.20;0.15;;;;;;;;;;4830704;29;20042;-85
2023/12/31 15:10:38;;;;;;;1.58;0.47;;;;;;;;;;4827472;29;20062;-85
2023/12/31 15:13:08;;;;;;;1.92;0.40;;;;;;;;;;4834161;29;20079;-83
2023/12/31 15:15:36;;;;;;;0.65;0.43;;;;;;;;;;4845148;29;20065;-82
2023/12/31 15:18:03;;;;;;;0.82;0.40;;;;;;;;;;4839428;29;20048;-82
2023/12/31 15:20:32;;;;;;;0.90;0.70;;;;;;;;;;4838914;29;20129;-82
2023/12/31 15:22:59;;;;;;;2.42;1.15;;;;;;;;;;4840039;29;20057;-82
2023/12/31 15:25:25;;;;;;;2.10;1.38;;;;;;;;;;4845340;29;20041;-81
2023/12/31 15:27:51;;;;;;;2.80;1.13;;;;;;;;;;4805566;29;20154;-82
2023/12/31 15:30:17;;;;;;;0.10;0.10;;;;;;;;;;4825328;29;20644;-81
2023/12/31 15:32:43;;;;;;;0.52;0.40;;;;;;;;;;4840667;29;20506;-81
2023/12/31 15:35:13;;;;;;;0.85;0.30;;;;;;;;;;4847740;29;20046;-81
2023/12/31 15:37:39;;;;;;;0.75;0.35;;;;;;;;;;4834654;29;20042;-84
2023/12/31 15:40:05;;;;;;;0.30;0.17;;;;;;;;;;4844637;29;20501;-81
2023/12/31 15:42:31;;;;;;;0.43;0.00;;;;;;;;;;4847909;29;20064;-81
2023/12/31 15:44:57;;;;;;;0.40;0.40;;;;;;;;;;4840058;29;20476;-81
2023/12/31 15:47:23;;;;;;;0.55;0.30;;;;;;;;;;4834462;29;20050;-80
2023/12/31 15:49:49;;;;;;;0.85;0.47;;;;;;;;;;4830439;29;20873;-81
2023/12/31 15:52:15;;;;;;;0.73;0.20;;;;;;;;;;4824162;29;20079;-81
2023/12/31 15:54:42;;;;;;;0.55;0.20;;;;;;;;;;4824548;29;20104;-81
2023/12/31 15:57:08;;;;;;;0.55;0.10;;;;;;;;;;4843622;29;20043;-81
2023/12/31 15:59:34;;;;;;;0.28;0.28;;;;;;;;;;4840164;29;20050;-81
2023/12/31 16:02:02;;;;;;;0.45;0.22;;;;;;;;;;4833532;29;20049;-81
2023/12/31 16:04:28;;;;;;;1.85;0.45;;;;;;;;;;4831298;29;20125;-81
2023/12/31 16:06:54;;;;;;;0.28;0.15;;;;;;;;;;4839488;29;20117;-81
2023/12/31 16:09:20;;;;;;;1.05;0.20;;;;;;;;;;4822941;29;20062;-82
2023/12/31 16:11:46;;;;;;;0.77;0.20;;;;;;;;;;4832128;29;20085;-81
2023/12/31 16:14:12;;;;;;;0.85;0.40;;;;;;;;;;4829919;29;20057;-84
2023/12/31 16:16:38;;;;;;;0.85;0.63;;;;;;;;;;4823303;29;20132;-84
2023/12/31 16:19:05;;;;;;;2.25;0.98;;;;;;;;;;4840990;29;20401;-82
2023/12/31 16:21:34;;;;;;;0.00;0.00;;;;;;;;;;4822572;29;20993;-83
2023/12/31 16:24:00;;;;;;;0.10;0.10;;;;;;;;;;4822540;29;20136;-82
2023/12/31 16:26:26;;;;;;;0.13;0.10;;;;;;;;;;4826864;29;20120;-82
2023/12/31 16:28:52;;;;;;;0.10;0.08;;;;;;;;;;4839493;29;20125;-81
2023/12/31 16:31:18;;;;;;;0.52;0.20;;;;;;;;;;4822639;29;20038;-81
2023/12/31 16:33:44;;;;;;;0.00;0.00;;;;;;;;;;4816547;29;20648;-80
2023/12/31 16:36:10;;;;;;;0.00;0.00;;;;;;;;;;4840473;29;20038;-80
2023/12/31 16:38:36;;;;;;;0.00;0.00;;;;;;;;;;4824987;29;20060;-81
2023/12/31 16:41:02;;;;;;;0.00;0.00;;;;;;;;;;4838704;29;20038;-81
2023/12/31 16:43:28;;;;;;;0.75;0.47;;;;;;;;;;4822320;29;20485;-81
2023/12/31 16:45:54;;;;;;;0.00;0.00;;;;;;;;;;4837857;29;20117;-81
2023/12/31 16:48:20;;;;;;;0.00;0.00;;;;;;;;;;4843102;29;20042;-81
2023/12/31 16:50:46;;;;;;;2.90;0.63;;;;;;;;;;4851221;29;20038;-81
2023/12/31 16:53:14;;;;;;;2.20;1.75;;;;;;;;;;4826115;29;20106;-81
2023/12/31 16:55:40;;;;;;;2.15;1.13;;;;;;;;;;4823909;29;20489;-80
2023/12/31 16:58:06;;;;;;;1.27;0.63;;;;;;;;;;4820504;29;20097;-82
2023/12/31 17:00:33;;;;;;;0.77;0.20;;;;;;;;;;4822667;29;20045;-81
2023/12/31 17:02:59;;;;;;;1.02;0.10;;;;;;;;;;4842801;29;20054;-81
2023/12/31 17:05:27;;;;;;;0.25;0.17;;;;;;;;;;4830263;29;20047;-81
2023/12/31 17:07:53;;;;;;;0.43;0.25;;;;;;;;;;4841771;29;20069;-80
2023/12/31 17:10:19;;;;;;;0.70;0.28;;;;;;;;;;4842127;29;20033;-81
2023/12/31 17:12:45;;;;;;;;;;;;;;;;;;4826632;29;20477;-81
2023/12/31 17:15:13;;;;;;;0.63;0.35;;;;;;;;;;4841498;29;19964;-81
2023/12/31 17:17:39;;;;;;;0.75;0.40;;;;;;;;;;4848660;29;20046;-80
2023/12/31 17:20:05;;;;;;;0.70;0.32;;;;;;;;;;4841770;29;20057;-80
2023/12/31 17:22:31;;;;;;;;;;;;;;;;;;4842950;29;20057;-81
2023/12/31 17:24:57;;;;;;;0.22;0.20;;;;;;;;;;4819765;29;19916;-80
2023/12/31 17:27:24;;;;;;;0.00;0.00;;;;;;;;;;4841698;29;20466;-79
2023/12/31 17:29:50;;;;;;;1.38;0.47;;;;;;;;;;4837701;29;20771;-80
2023/12/31 17:32:16;;;;;;;0.77;0.60;;;;;;;;;;4840125;29;20078;-80
2023/12/31 17:34:42;;;;;;;0.95;0.55;;;;;;;;;;4841035;29;20046;-80
2023/12/31 17:37:09;;;;;;;0.98;0.55;;;;;;;;;;4844927;29;20465;-79
2023/12/31 17:39:36;;;;;;;1.15;0.50;;;;;;;;;;4826310;29;20081;-79
2023/12/31 17:42:02;;;;;;;0.38;0.30;;;;;;;;;;4829614;29;20058;-79
2023/12/31 17:44:28;;;;;;;0.68;0.45;;;;;;;;;;4844642;29;20058;-78
2023/12/31 17:46:54;;;;;;;1.23;0.38;;;;;;;;;;4842089;29;20448;-80
2023/12/31 17:49:20;;;;;;;0.40;0.32;;;;;;;;;;4840741;29;20093;-78
2023/12/31 17:51:46;;;;;;;0.20;0.10;;;;;;;;;;4841029;29;20477;-78
2023/12/31 17:54:12;;;;;;;0.22;0.17;;;;;;;;;;4845820;29;20049;-78
2023/12/31 17:56:39;;;;;;;0.20;0.13;;;;;;;;;;4840012;29;20532;-79
2023/12/31 17:59:05;;;;;;;0.15;0.10;;;;;;;;;;4843244;29;20049;-78
2023/12/31 18:01:31;;;;;;;0.32;0.17;;;;;;;;;;4837744;29;20042;-79
2023/12/31 18:03:57;;;;;;;1.15;0.73;;;;;;;;;;4848712;29;20715;-79
2023/12/31 18:06:23;;;;;;;0.15;0.15;;;;;;;;;;4841336;29;20073;-79
2023/12/31 18:08:49;;;;;;;0.00;0.00;;;;;;;;;;4841597;29;20522;-79
2023/12/31 18:11:16;;;;;;;4.97;1.13;;;;;;;;;;4826314;29;20095;-80
2023/12/31 18:13:42;;;;;;;1.27;0.93;;;;;;;;;;4823431;29;20153;-80
2023/12/31 18:16:08;;;;;;;2.53;0.95;;;;;;;;;;4825632;29;20082;-80
2023/12/31 18:18:34;;;;;;;5.93;1.40;;;;;;;;;;4817991;29;20082;-79
2023/12/31 18:21:00;;;;;;;2.85;1.38;;;;;;;;;;4837695;29;20069;-79
2023/12/31 18:23:26;;;;;;;3.35;1.45;;;;;;;;;;4823211;29;20058;-80
2023/12/31 18:25:52;;;;;;;9.63;2.72;;;;;;;;;;4825425;29;20053;-80
2023/12/31 18:28:18;;;;;;;1.75;1.05;;;;;;;;;;4821662;29;20042;-80
2023/12/31 18:30:46;;;;;;;2.10;0.65;;;;;;;;;;4837819;29;20111;-80
2023/12/31 18:33:12;;;;;;;2.08;1.30;;;;;;;;;;4840942;29;20037;-80
2023/12/31 18:35:38;;;;;;;1.42;0.88;;;;;;;;;;4841110;29;20462;-81
2023/12/31 18:38:07;;;;;;;4.25;0.90;;;;;;;;;;4840646;29;20046;-81
2023/12/31 18:40:33;;;;;;;5.07;0.73;;;;;;;;;;4824878;29;20094;-80
2023/12/31 18:42:59;;;;;;;5.70;2.10;;;;;;;;;;4818725;29;20058;-80
2023/12/31 18:45:25;;;;;;;1.15;0.47;;;;;;;;;;4823493;29;20038;-80
2023/12/31 18:47:51;;;;;;;4.88;0.63;;;;;;;;;;4829580;29;20046;-80
2023/12/31 18:50:17;;;;;;;1.17;0.50;;;;;;;;;;4836614;29;20434;-80
2023/12/31 18:52:43;;;;;;;4.65;1.67;;;;;;;;;;4822438;29;20076;-80
2023/12/31 18:55:09;;;;;;;2.05;0.73;;;;;;;;;;4827121;29;20080;-80
2023/12/31 18:57:35;;;;;;;3.70;1.48;;;;;;;;;;4821326;29;20136;-80
2023/12/31 19:00:01;;;;;;;5.28;1.63;;;;;;;;;;4825492;29;20050;-80
2023/12/31 19:02:27;;;;;;;3.47;1.85;;;;;;;;;;4820862;29;20450;-80
2023/12/31 19:04:54;;;;;;;8.65;1.40;;;;;;;;;;4840088;29;20084;-80
2023/12/31 19:07:20;;;;;;;2.35;1.15;;;;;;;;;;4826329;29;20132;-80
2023/12/31 19:09:46;;;;;;;5.30;1.45;;;;;;;;;;4844441;29;20049;-81
2023/12/31 19:12:12;;;;;;;2.95;1.75;;;;;;;;;;4839151;29;20067;-80
2023/12/31 19:14:38;;;;;;;5.15;1.85;;;;;;;;;;4823900;29;20068;-81
2023/12/31 19:17:04;;;;;;;3.70;1.95;;;;;;;;;;4843012;29;20045;-79
2023/12/31 19:19:31;;;;;;;3.60;1.75;;;;;;;;;;4839249;29;20042;-79
2023/12/31 19:21:57;;;;;;;2.20;1.80;;;;;;;;;;4839110;29;20042;-80
2023/12/31 19:24:24;;;;;;;2.90;1.63;;;;;;;;;;4838685;29;20045;-80
2023/12/31 19:26:51;;;;;;;3.25;1.65;;;;;;;;;;4823303;29;20165;-82
2023/12/31 19:29:18;;;;;;;2.83;1.08;;;;;;;;;;4815900;29;20077;-83
2023/12/31 19:31:51;;;;;;;2.05;1.05;;;;;;;;;;4821157;29;20050;-83
2023/12/31 19:34:17;;;;;;;2.85;1.77;;;;;;;;;;4819155;29;20037;-83
2023/12/31 19:36:44;;;;;;;2.13;1.20;;;;;;;;;;4823356;29;20488;-83
2023/12/31 19:39:10;;;;;;;3.97;1.63;;;;;;;;;;4822924;29;20062;-83
2023/12/31 19:41:52;;;;;;;;;;;;;;;;;;;;;
2023/12/31 19:44:18;;;;;;;2.80;1.47;;;;;;;;;;4840055;29;20041;-81
2023/12/31 19:46:47;;;;;;;3.17;1.13;;;;;;;;;;4839771;29;20050;-82
2023/12/31 19:49:25;;;;;;;2.40;1.33;;;;;;;;;;4839248;29;20507;-82
2023/12/31 19:52:22;;;;;;;2.55;1.52;;;;;;;;;;4841039;29;20049;-82
2023/12/31 19:57:27;;;;;;;2.80;1.13;;;;;;;;;;3057016;27;20063;-83
2023/12/31 19:59:55;;;;;;;4.60;2.47;;;;;;;;;;4770119;29;20066;-80
2023/12/31 20:02:21;;;;;;;1.73;1.10;;;;;;;;;;4789828;29;20081;-81
2023/12/31 20:04:47;;;;;;;3.08;1.60;;;;;;;;;;4781230;29;20067;-80
2023/12/31 20:07:13;;;;;;;1.35;0.90;;;;;;;;;;4783989;29;20743;-80
2023/12/31 20:09:39;;;;;;;2.78;0.80;;;;;;;;;;4785053;30;20054;-81
2023/12/31 20:12:06;;;;;;;6.45;1.83;;;;;;;;;;4786280;29;20054;-80
2023/12/31 20:14:32;;;;;;;7.28;2.58;;;;;;;;;;4789576;29;20035;-80
2023/12/31 20:16:58;;;;;;;2.20;1.58;;;;;;;;;;4792371;29;20047;-80
2023/12/31 20:19:24;;;;;;;5.45;2.22;;;;;;;;;;4791541;29;20072;-80
2023/12/31 20:21:50;;;;;;;4.28;2.35;;;;;;;;;;4785399;30;20058;-80
2023/12/31 20:24:18;;;;;;;9.13;2.78;;;;;;;;;;4774955;29;20427;-80
2023/12/31 20:26:44;;;;;;;4.88;1.30;;;;;;;;;;4773351;30;20056;-80
2023/12/31 20:29:10;;;;;;;7.50;1.45;;;;;;;;;;4781553;30;20471;-81
2023/12/31 20:31:45;;;;;;;2.95;2.05;;;;;;;;;;4769224;30;20055;-82
2023/12/31 20:34:14;;;;;;;2.05;1.17;;;;;;;;;;4794707;29;20046;-80
2023/12/31 20:36:40;;;;;;;5.82;1.13;;;;;;;;;;4784675;30;20055;-81
2023/12/31 20:39:06;;;;;;;4.90;1.05;;;;;;;;;;4768206;30;20039;-81
2023/12/31 20:41:32;;;;;;;4.55;1.30;;;;;;;;;;4776927;30;20418;-82
2023/12/31 20:43:58;;;;;;;8.77;3.17;;;;;;;;;;4773081;30;20047;-81
2023/12/31 20:46:24;;;;;;;2.35;1.77;;;;;;;;;;4790509;29;20055;-80
2023/12/31 20:48:50;;;;;;;3.80;1.70;;;;;;;;;;4782435;30;20039;-80
2023/12/31 20:51:17;;;;;;;6.00;1.67;;;;;;;;;;4768703;30;20043;-81
2023/12/31 20:53:43;;;;;;;4.75;1.48;;;;;;;;;;4789017;29;20089;-80
2023/12/31 20:56:13;;;;;;;4.03;1.60;;;;;;;;;;4796834;29;20055;-80
2023/12/31 20:58:39;;;;;;;3.65;1.88;;;;;;;;;;4784146;29;21033;-80
2023/12/31 21:01:05;;;;;;;9.32;2.78;;;;;;;;;;4780960;30;20063;-81
2023/12/31 21:03:31;;;;;;;3.15;2.10;;;;;;;;;;4784893;30;20039;-81
2023/12/31 21:06:00;;;;;;;3.65;1.92;;;;;;;;;;4789233;29;20058;-80
2023/12/31 21:08:26;;;;;;;1.65;1.20;;;;;;;;;;4789271;29;20118;-79
2023/12/31 21:10:52;;;;;;;4.20;1.65;;;;;;;;;;4785220;30;20101;-80
2023/12/31 21:13:20;;;;;;;1.95;1.13;;;;;;;;;;4772778;30;20391;-80
2023/12/31 21:15:46;;;;;;;6.55;2.03;;;;;;;;;;4785860;29;20054;-81
2023/12/31 21:18:12;;;;;;;4.75;1.52;;;;;;;;;;4774668;29;20133;-80
2023/12/31 21:20:38;;;;;;;5.82;2.47;;;;;;;;;;4789479;29;20126;-81
2023/12/31 21:23:04;;;;;;;4.25;1.45;;;;;;;;;;4784167;30;20035;-80
2023/12/31 21:25:35;;;;;;;2.03;1.20;;;;;;;;;;4802725;24;20059;-81
2023/12/31 21:28:08;;;;;;;2.03;1.70;;;;;;;;;;4799433;29;20038;-80
2023/12/31 21:30:34;;;;;;;3.70;1.27;;;;;;;;;;4808909;29;20054;-81
2023/12/31 21:33:00;;;;;;;9.20;3.08;;;;;;;;;;4811897;29;20043;-82
2023/12/31 21:35:26;;;;;;;6.50;3.45;;;;;;;;;;4805753;29;20065;-80
2023/12/31 21:37:56;;;;;;;5.75;1.95;;;;;;;;;;4800177;29;20479;-80
2023/12/31 21:40:22;;;;;;;4.38;2.70;;;;;;;;;;4806467;29;20549;-80
2023/12/31 21:42:48;;;;;;;6.10;2.88;;;;;;;;;;4808561;29;20047;-79
2023/12/31 21:45:15;;;;;;;5.57;2.45;;;;;;;;;;4809379;29;20563;-81
2023/12/31 21:47:41;;;;;;;7.32;1.98;;;;;;;;;;4804970;29;20058;-81
2023/12/31 21:50:07;;;;;;;5.82;2.17;;;;;;;;;;4790225;29;20055;-80
2023/12/31 21:52:33;;;;;;;4.30;2.38;;;;;;;;;;4803256;29;20050;-79
2023/12/31 21:55:00;;;;;;;8.48;2.15;;;;;;;;;;4800298;29;20389;-80
2023/12/31 21:57:26;;;;;;;6.18;1.77;;;;;;;;;;4805294;29;20047;-81
2023/12/31 21:59:52;;;;;;;2.72;1.80;;;;;;;;;;4789019;29;20792;-81
2023/12/31 22:02:19;;;;;;;5.05;1.73;;;;;;;;;;4808804;29;20047;-80
2023/12/31 22:04:45;;;;;;;8.60;2.63;;;;;;;;;;4812304;29;20039;-80
2023/12/31 22:07:11;;;;;;;4.20;1.67;;;;;;;;;;4805332;29;20053;-80
2023/12/31 22:09:38;;;;;;;5.47;2.72;;;;;;;;;;4789311;29;20047;-80
2023/12/31 22:12:04;;;;;;;4.60;2.72;;;;;;;;;;4805506;29;20050;-80
2023/12/31 22:14:30;;;;;;;5.07;2.00;;;;;;;;;;4799278;29;20165;-80
2023/12/31 22:16:56;;;;;;;4.22;2.30;;;;;;;;;;4802794;29;20537;-80
2023/12/31 22:19:22;;;;;;;3.00;1.70;;;;;;;;;;4810443;29;20108;-79
2023/12/31 22:21:48;;;;;;;3.15;1.60;;;;;;;;;;4817968;29;20378;-79
2023/12/31 22:24:14;;;;;;;2.97;1.65;;;;;;;;;;4811252;29;20049;-79
2023/12/31 22:26:40;;;;;;;4.13;2.42;;;;;;;;;;4804300;29;20055;-79
2023/12/31 22:29:06;;;;;;;8.23;2.10;;;;;;;;;;4808087;29;20046;-80
2023/12/31 22:31:32;;;;;;;4.75;2.10;;;;;;;;;;4803098;29;20042;-81
2023/12/31 22:33:58;;;;;;;2.15;1.02;;;;;;;;;;4793567;29;20410;-80
2023/12/31 22:36:24;;;;;;;1.77;0.88;;;;;;;;;;4815083;29;20427;-80
2023/12/31 22:38:50;;;;;;;2.42;0.85;;;;;;;;;;4813303;29;20046;-79
2023/12/31 22:41:18;;;;;;;3.58;1.15;;;;;;;;;;4812881;29;20050;-80
2023/12/31 22:43:44;;;;;;;2.22;1.00;;;;;;;;;;4805038;29;20539;-79
2023/12/31 22:46:10;;;;;;;3.25;0.95;;;;;;;;;;4810087;29;20538;-79
2023/12/31 22:48:36;;;;;;;2.53;1.08;;;;;;;;;;4805499;29;20042;-80
2023/12/31 22:51:02;;;;;;;2.40;1.52;;;;;;;;;;4808854;29;20593;-80
2023/12/31 22:53:28;;;;;;;1.70;1.15;;;;;;;;;;4815263;29;20062;-79
2023/12/31 22:55:54;;;;;;;2.45;1.02;;;;;;;;;;4804417;29;20051;-79
2023/12/31 22:58:20;;;;;;;2.83;1.27;;;;;;;;;;4798584;29;20075;-79
2023/12/31 23:00:46;;;;;;;1.55;0.77;;;;;;;;;;4804377;29;20099;-80
2023/12/31 23:03:12;;;;;;;1.98;1.27;;;;;;;;;;4804252;29;20708;-80
2023/12/31 23:05:38;;;;;;;3.15;1.73;;;;;;;;;;4803337;29;20065;-79
2023/12/31 23:08:04;;;;;;;6.70;4.25;;;;;;;;;;4803694;29;20057;-81
2023/12/31 23:10:30;;;;;;;8.05;3.40;;;;;;;;;;4801240;29;20034;-79
2023/12/31 23:12:57;;;;;;;47.92;19.35;;;;;;;;;;4792817;29;20058;-80
2023/12/31 23:15:23;;;;;;;52.38;20.70;;;;;;;;;;4803776;29;20525;-80
2023/12/31 23:17:49;;;;;;;28.50;14.23;;;;;;;;;;4802770;29;20051;-80
2023/12/31 23:20:15;;;;;;;13.55;8.85;;;;;;;;;;4799738;29;20390;-80
2023/12/31 23:22:42;;;;;;;21.88;9.93;;;;;;;;;;4803242;29;20047;-80
2023/12/31 23:25:09;;;;;;;11.60;7.68;;;;;;;;;;4810947;29;20039;-80
2023/12/31 23:27:59;;;;;;;10.95;7.20;;;;;;;;;;4901970;24;20029;-83
2023/12/31 23:30:25;;;;;;;12.88;6.75;;;;;;;;;;4799610;29;20054;-82
2023/12/31 23:32:52;;;;;;;7.50;5.80;;;;;;;;;;4791545;29;20466;-82
2023/12/31 23:35:18;;;;;;;20.90;8.93;;;;;;;;;;4813576;29;20461;-82
2023/12/31 23:37:44;;;;;;;14.65;7.85;;;;;;;;;;4803457;29;20054;-82
2023/12/31 23:40:10;;;;;;;14.60;6.65;;;;;;;;;;4804866;29;20417;-82
2023/12/31 23:42:36;;;;;;;11.27;6.68;;;;;;;;;;4801921;29;20058;-82
2023/12/31 23:45:02;;;;;;;21.70;8.23;;;;;;;;;;4771251;29;20058;-82
2023/12/31 23:47:29;;;;;;;10.90;6.53;;;;;;;;;;4803175;29;20043;-81
2023/12/31 23:49:56;;;;;;;11.35;5.55;;;;;;;;;;4811237;29;20050;-82
2023/12/31 23:52:22;;;;;;;8.80;6.15;;;;;;;;;;4809366;29;20477;-82
2023/12/31 23:54:48;;;;;;;17.65;4.03;;;;;;;;;;4808298;29;20046;-81
2023/12/31 23:57:14;;;;;;;8.70;5.38;;;;;;;;;;4803065;29;20042;-82
2023/12/31 23:59:40;;;;;;;9.80;4.72;;;;;;;;;;4803035;29;20070;-82
